createdAt,value
2023-04-01T00:00:29.657Z,17.31
2023-04-01T00:02:57.659Z,17.30
2023-04-01T00:05:39.741Z,17.32
2023-04-01T00:08:07.145Z,17.28
2023-04-01T00:10:34.090Z,17.30
2023-04-01T00:13:01.685Z,17.29
2023-04-01T00:15:28.580Z,17.28
2023-04-01T00:17:56.106Z,17.27
2023-04-01T00:20:31.991Z,17.26
2023-04-01T00:22:59.046Z,17.27
2023-04-01T00:25:26.178Z,17.25
2023-04-01T00:27:53.972Z,17.25
2023-04-01T00:30:21.176Z,17.25
2023-04-01T00:32:48.171Z,17.24
2023-04-01T00:35:15.141Z,17.24
2023-04-01T00:37:42.058Z,17.18
2023-04-01T00:40:22.802Z,17.14
2023-04-01T00:42:49.823Z,17.07
2023-04-01T00:45:41.500Z,17.07
2023-04-01T00:48:12.819Z,17.06
2023-04-01T00:50:44.342Z,17.05
2023-04-01T00:53:12.175Z,16.99
2023-04-01T00:55:45.333Z,16.99
2023-04-01T00:58:17.855Z,16.98
2023-04-01T01:00:46.602Z,16.91
2023-04-01T01:03:13.849Z,16.93
2023-04-01T01:06:09.163Z,16.96
2023-04-01T01:08:53.776Z,16.93
2023-04-01T01:11:43.249Z,16.91
2023-04-01T01:14:52.654Z,16.93
2023-04-01T01:17:39.894Z,16.93
2023-04-01T01:20:34.408Z,16.92
2023-04-01T01:23:10.647Z,16.84
2023-04-01T01:25:56.825Z,16.88
2023-04-01T01:28:57.053Z,16.87
2023-04-01T01:31:32.085Z,16.87
2023-04-01T01:33:58.958Z,16.88
2023-04-01T01:36:29.761Z,16.87
2023-04-01T01:38:58.760Z,16.89
2023-04-01T01:41:28.123Z,16.87
2023-04-01T01:43:59.864Z,16.87
2023-04-01T01:46:30.407Z,16.88
2023-04-01T01:49:00.547Z,16.86
2023-04-01T01:51:29.148Z,16.87
2023-04-01T01:53:56.255Z,16.85
2023-04-01T01:56:29.022Z,16.87
2023-04-01T01:59:04.599Z,16.88
2023-04-01T02:01:36.970Z,16.88
2023-04-01T02:04:14.325Z,16.88
2023-04-01T02:06:48.308Z,16.86
2023-04-01T02:09:15.970Z,16.85
2023-04-01T02:11:53.355Z,16.85
2023-04-01T02:14:36.108Z,16.83
2023-04-01T02:17:08.096Z,16.82
2023-04-01T02:19:44.245Z,16.83
2023-04-01T02:22:17.594Z,16.84
2023-04-01T02:24:46.521Z,16.85
2023-04-01T02:27:13.977Z,16.80
2023-04-01T02:29:41.180Z,16.80
2023-04-01T02:32:10.448Z,16.85
2023-04-01T02:34:38.198Z,16.81
2023-04-01T02:37:05.497Z,16.79
2023-04-01T02:39:32.617Z,16.76
2023-04-01T02:41:59.686Z,16.76
2023-04-01T02:44:26.753Z,16.78
2023-04-01T02:46:54.115Z,16.79
2023-04-01T02:49:21.201Z,16.85
2023-04-01T02:51:48.213Z,16.87
2023-04-01T02:54:15.816Z,16.88
2023-04-01T02:56:43.840Z,16.90
2023-04-01T02:59:10.944Z,16.90
2023-04-01T03:01:38.009Z,16.92
2023-04-01T03:04:05.578Z,16.89
2023-04-01T03:06:32.545Z,16.81
2023-04-01T03:08:59.445Z,16.82
2023-04-01T03:11:27.416Z,16.80
2023-04-01T03:13:54.681Z,16.78
2023-04-01T03:16:21.686Z,16.77
2023-04-01T03:18:51.765Z,16.74
2023-04-01T03:21:21.828Z,16.65
2023-04-01T03:23:49.007Z,16.65
2023-04-01T03:26:16.622Z,16.63
2023-04-01T03:28:44.455Z,16.55
2023-04-01T03:31:11.820Z,16.53
2023-04-01T03:33:45.562Z,16.54
2023-04-01T03:36:13.938Z,16.53
2023-04-01T03:38:45.698Z,16.59
2023-04-01T03:41:17.421Z,16.58
2023-04-01T03:43:45.181Z,16.58
2023-04-01T03:46:12.622Z,16.62
2023-04-01T03:48:39.766Z,16.59
2023-04-01T03:51:09.952Z,16.63
2023-04-01T03:53:37.253Z,16.69
2023-04-01T03:56:10.222Z,16.69
2023-04-01T03:58:37.750Z,16.66
2023-04-01T04:01:26.295Z,16.73
2023-04-01T04:03:57.358Z,16.69
2023-04-01T04:06:25.175Z,16.73
2023-04-01T04:08:53.111Z,16.73
2023-04-01T04:11:22.108Z,16.76
2023-04-01T04:13:53.321Z,16.76
2023-04-01T04:16:20.982Z,16.76
2023-04-01T04:18:55.036Z,16.75
2023-04-01T04:21:21.977Z,16.75
2023-04-01T04:23:48.932Z,16.77
2023-04-01T04:26:18.621Z,16.77
2023-04-01T04:28:54.683Z,16.77
2023-04-01T04:31:25.602Z,16.76
2023-04-01T04:33:55.436Z,16.74
2023-04-01T04:36:23.043Z,16.75
2023-04-01T04:38:51.662Z,16.79
2023-04-01T04:41:20.470Z,16.80
2023-04-01T04:43:55.383Z,16.79
2023-04-01T04:46:24.959Z,16.80
2023-04-01T04:48:58.413Z,16.82
2023-04-01T04:51:26.448Z,16.80
2023-04-01T04:53:53.457Z,16.78
2023-04-01T04:56:29.877Z,16.79
2023-04-01T04:59:08.627Z,16.75
2023-04-01T05:01:58.815Z,16.76
2023-04-01T05:04:25.783Z,16.72
2023-04-01T05:06:52.884Z,16.72
2023-04-01T05:09:20.028Z,16.76
2023-04-01T05:11:46.902Z,16.79
2023-04-01T05:14:16.091Z,16.80
2023-04-01T05:16:46.808Z,16.81
2023-04-01T05:19:14.286Z,16.81
2023-04-01T05:21:41.149Z,16.78
2023-04-01T05:24:11.725Z,16.77
2023-04-01T05:26:39.654Z,16.76
2023-04-01T05:29:06.803Z,16.75
2023-04-01T05:31:34.112Z,16.71
2023-04-01T05:34:01.655Z,16.70
2023-04-01T05:36:28.784Z,16.70
2023-04-01T05:38:57.549Z,16.64
2023-04-01T05:41:26.806Z,16.58
2023-04-01T05:43:53.711Z,16.53
2023-04-01T05:46:39.114Z,16.50
2023-04-01T05:49:35.214Z,16.51
2023-04-01T05:52:03.950Z,16.52
2023-04-01T05:54:32.205Z,16.55
2023-04-01T05:56:59.204Z,16.55
2023-04-01T05:59:26.303Z,16.56
2023-04-01T06:01:54.026Z,16.52
2023-04-01T06:04:21.344Z,16.51
2023-04-01T06:06:48.302Z,16.54
2023-04-01T06:09:20.601Z,16.51
2023-04-01T06:12:14.259Z,16.43
2023-04-01T06:15:01.182Z,16.37
2023-04-01T06:17:57.065Z,16.40
2023-04-01T06:20:38.445Z,16.42
2023-04-01T06:23:35.905Z,16.42
2023-04-01T06:26:25.819Z,16.43
2023-04-01T06:29:27.255Z,16.40
2023-04-01T06:32:13.796Z,16.32
2023-04-01T06:34:59.852Z,16.35
2023-04-01T06:37:48.469Z,16.36
2023-04-01T06:40:22.824Z,16.38
2023-04-01T06:43:10.970Z,16.41
2023-04-01T06:46:18.848Z,16.42
2023-04-01T06:49:14.293Z,16.43
2023-04-01T06:52:35.296Z,16.38
2023-04-01T06:55:51.179Z,16.37
2023-04-01T06:58:42.921Z,16.37
2023-04-01T07:02:00.699Z,16.39
2023-04-01T07:04:32.834Z,16.36
2023-04-01T07:07:21.602Z,16.37
2023-04-01T07:10:00.424Z,16.36
2023-04-01T07:12:34.985Z,16.38
2023-04-01T07:15:22.231Z,16.39
2023-04-01T07:18:13.293Z,16.36
2023-04-01T07:20:40.944Z,16.34
2023-04-01T07:23:18.083Z,16.36
2023-04-01T07:26:01.557Z,16.31
2023-04-01T07:28:35.284Z,16.34
2023-04-01T07:31:26.526Z,16.34
2023-04-01T07:34:21.853Z,16.32
2023-04-01T07:37:03.801Z,16.37
2023-04-01T07:39:37.124Z,16.41
2023-04-01T07:42:38.747Z,16.43
2023-04-01T07:45:28.011Z,16.44
2023-04-01T07:48:26.499Z,16.46
2023-04-01T07:50:58.320Z,16.41
2023-04-01T07:53:31.351Z,16.41
2023-04-01T07:56:13.293Z,16.45
2023-04-01T07:58:56.975Z,16.45
2023-04-01T08:02:02.673Z,16.52
2023-04-01T08:04:36.366Z,16.55
2023-04-01T08:07:27.532Z,16.61
2023-04-01T08:10:24.572Z,16.60
2023-04-01T08:13:22.207Z,16.63
2023-04-01T08:16:33.222Z,16.64
2023-04-01T08:19:43.413Z,16.61
2023-04-01T08:22:30.418Z,16.62
2023-04-01T08:25:05.305Z,16.65
2023-04-01T08:27:54.766Z,16.70
2023-04-01T08:30:27.191Z,16.72
2023-04-01T08:33:06.267Z,16.77
2023-04-01T08:35:42.803Z,16.85
2023-04-01T08:38:19.564Z,16.86
2023-04-01T08:41:14.687Z,16.87
2023-04-01T08:45:05.087Z,16.89
2023-04-01T08:47:56.485Z,16.87
2023-04-01T08:50:35.849Z,16.94
2023-04-01T08:53:12.645Z,16.97
2023-04-01T08:56:21.806Z,17.05
2023-04-01T08:59:15.644Z,17.01
2023-04-01T09:02:11.479Z,16.97
2023-04-01T09:05:04.459Z,17.11
2023-04-01T09:08:02.770Z,17.16
2023-04-01T09:10:29.943Z,17.21
2023-04-01T09:13:38.687Z,17.30
2023-04-01T09:16:24.433Z,17.36
2023-04-01T09:19:32.638Z,17.41
2023-04-01T09:22:22.572Z,17.41
2023-04-01T09:25:24.301Z,17.57
2023-04-01T09:28:29.758Z,17.61
2023-04-01T09:31:00.167Z,17.68
2023-04-01T09:33:49.141Z,17.78
2023-04-01T09:36:28.207Z,17.80
2023-04-01T09:38:55.422Z,17.90
2023-04-01T09:41:55.585Z,18.00
2023-04-01T09:45:20.146Z,18.09
2023-04-01T09:48:14.242Z,18.39
2023-04-01T09:50:41.477Z,18.90
2023-04-01T09:53:26.836Z,19.23
2023-04-01T09:56:32.968Z,19.60
2023-04-01T09:59:21.804Z,20.04
2023-04-01T10:02:58.295Z,20.57
2023-04-01T10:05:43.061Z,21.02
2023-04-01T10:08:20.327Z,21.86
2023-04-01T10:11:11.616Z,23.57
2023-04-01T10:13:57.658Z,25.04
2023-04-01T10:16:46.964Z,26.31
2023-04-01T10:19:32.031Z,27.24
2023-04-01T10:22:18.006Z,27.89
2023-04-01T10:24:49.638Z,28.70
2023-04-01T10:27:35.102Z,29.29
2023-04-01T10:30:07.461Z,30.04
2023-04-01T10:32:47.115Z,30.33
2023-04-01T10:35:39.213Z,30.72
2023-04-01T10:38:18.035Z,30.72
2023-04-01T10:41:04.199Z,30.35
2023-04-01T10:43:52.941Z,29.92
2023-04-01T10:46:38.401Z,29.54
2023-04-01T10:49:29.539Z,29.20
2023-04-01T10:52:06.317Z,28.69
2023-04-01T10:55:16.681Z,28.31
2023-04-01T10:58:21.659Z,27.71
2023-04-01T11:01:28.756Z,27.37
2023-04-01T11:04:32.709Z,27.13
2023-04-01T11:07:31.452Z,26.82
2023-04-01T11:10:16.467Z,26.63
2023-04-01T11:13:07.754Z,26.34
2023-04-01T11:16:11.979Z,26.38
2023-04-01T11:19:06.093Z,26.27
2023-04-01T11:21:39.015Z,25.82
2023-04-01T11:24:43.313Z,25.89
2023-04-01T11:28:07.259Z,25.76
2023-04-01T11:30:43.608Z,25.56
2023-04-01T11:33:22.101Z,25.50
2023-04-01T11:36:11.620Z,25.40
2023-04-01T11:39:04.498Z,25.34
2023-04-01T11:42:18.929Z,24.94
2023-04-01T11:45:30.143Z,24.20
2023-04-01T11:48:28.711Z,22.91
2023-04-01T11:51:21.086Z,22.35
2023-04-01T11:54:18.461Z,21.84
2023-04-01T11:57:18.775Z,21.97
2023-04-01T12:00:19.294Z,21.58
2023-04-01T12:02:57.924Z,21.20
2023-04-01T12:05:51.274Z,20.91
2023-04-01T12:08:42.888Z,21.01
2023-04-01T12:11:37.935Z,21.07
2023-04-01T12:14:31.972Z,21.29
2023-04-01T12:17:10.744Z,21.45
2023-04-01T12:19:54.874Z,21.43
2023-04-01T12:22:36.448Z,21.44
2023-04-01T12:25:18.548Z,21.42
2023-04-01T12:27:59.953Z,21.41
2023-04-01T12:30:32.771Z,21.23
2023-04-01T12:33:24.400Z,21.21
2023-04-01T12:36:33.150Z,21.23
2023-04-01T12:39:37.790Z,21.23
2023-04-01T12:42:30.215Z,20.81
2023-04-01T12:45:18.567Z,20.84
2023-04-01T12:48:12.006Z,21.03
2023-04-01T12:51:03.948Z,20.97
2023-04-01T12:53:58.856Z,20.84
2023-04-01T12:56:44.372Z,20.75
2023-04-01T12:59:48.172Z,20.69
2023-04-01T13:02:30.710Z,20.69
2023-04-01T13:04:58.798Z,20.84
2023-04-01T13:07:46.587Z,20.95
2023-04-01T13:10:38.475Z,21.04
2023-04-01T13:13:05.496Z,21.01
2023-04-01T13:15:44.801Z,21.11
2023-04-01T13:18:23.962Z,21.22
2023-04-01T13:21:07.413Z,21.24
2023-04-01T13:23:50.035Z,20.98
2023-04-01T13:26:35.825Z,21.21
2023-04-01T13:29:15.446Z,21.24
2023-04-01T13:32:17.981Z,21.31
2023-04-01T13:35:09.802Z,21.44
2023-04-01T13:37:44.464Z,21.50
2023-04-01T13:41:02.346Z,21.65
2023-04-01T13:43:40.939Z,21.78
2023-04-01T13:46:36.292Z,21.73
2023-04-01T13:49:13.241Z,21.53
2023-04-01T13:51:40.343Z,21.43
2023-04-01T13:54:22.183Z,21.39
2023-04-01T13:57:15.799Z,21.44
2023-04-01T14:00:07.514Z,21.19
2023-04-01T14:03:14.722Z,21.23
2023-04-01T14:06:00.616Z,20.98
2023-04-01T14:09:09.278Z,21.02
2023-04-01T14:12:07.536Z,20.76
2023-04-01T14:14:40.736Z,19.91
2023-04-01T14:17:25.600Z,19.69
2023-04-01T14:19:52.395Z,19.24
2023-04-01T14:22:45.211Z,18.87
2023-04-01T14:25:50.033Z,18.79
2023-04-01T14:28:43.017Z,18.79
2023-04-01T14:31:35.649Z,18.60
2023-04-01T14:34:05.910Z,18.56
2023-04-01T14:36:58.346Z,18.74
2023-04-01T14:39:37.395Z,18.67
2023-04-01T14:42:28.517Z,18.73
2023-04-01T14:45:03.176Z,18.49
2023-04-01T14:47:43.297Z,18.28
2023-04-01T14:50:41.724Z,18.00
2023-04-01T14:53:08.547Z,17.91
2023-04-01T14:55:44.604Z,17.67
2023-04-01T14:58:20.691Z,17.92
2023-04-01T15:00:50.397Z,17.97
2023-04-01T15:03:35.023Z,18.07
2023-04-01T15:06:26.939Z,18.13
2023-04-01T15:09:08.915Z,18.00
2023-04-01T15:12:01.759Z,18.11
2023-04-01T15:14:28.568Z,18.28
2023-04-01T15:17:15.624Z,18.28
2023-04-01T15:20:03.439Z,18.16
2023-04-01T15:22:59.510Z,18.04
2023-04-01T15:25:37.125Z,18.26
2023-04-01T15:28:12.267Z,18.15
2023-04-01T15:31:06.155Z,17.97
2023-04-01T15:34:10.131Z,18.12
2023-04-01T15:36:56.055Z,18.00
2023-04-01T15:39:32.295Z,17.76
2023-04-01T15:42:35.640Z,18.08
2023-04-01T15:45:27.309Z,17.99
2023-04-01T15:48:08.347Z,17.64
2023-04-01T15:51:02.239Z,17.59
2023-04-01T15:53:45.979Z,17.57
2023-04-01T15:56:42.456Z,17.31
2023-04-01T15:59:15.812Z,17.44
2023-04-01T16:02:03.990Z,17.36
2023-04-01T16:04:46.482Z,17.26
2023-04-01T16:07:22.596Z,17.25
2023-04-01T16:10:19.166Z,17.34
2023-04-01T16:13:01.074Z,17.41
2023-04-01T16:15:38.711Z,17.56
2023-04-01T16:18:23.394Z,17.41
2023-04-01T16:21:06.103Z,17.30
2023-04-01T16:23:44.802Z,17.45
2023-04-01T16:26:38.211Z,17.55
2023-04-01T16:29:39.560Z,17.66
2023-04-01T16:32:38.213Z,17.43
2023-04-01T16:35:42.754Z,17.19
2023-04-01T16:38:32.221Z,17.20
2023-04-01T16:41:20.350Z,17.01
2023-04-01T16:43:58.248Z,17.27
2023-04-01T16:46:40.431Z,17.53
2023-04-01T16:49:13.058Z,17.59
2023-04-01T16:51:52.735Z,17.82
2023-04-01T16:54:22.694Z,17.93
2023-04-01T16:56:55.526Z,18.03
2023-04-01T16:59:32.642Z,18.02
2023-04-01T17:02:14.651Z,17.98
2023-04-01T17:04:46.029Z,17.59
2023-04-01T17:07:40.277Z,17.56
2023-04-01T17:10:52.163Z,17.55
2023-04-01T17:13:34.072Z,17.61
2023-04-01T17:16:06.811Z,17.73
2023-04-01T17:18:42.703Z,17.58
2023-04-01T17:21:24.214Z,18.02
2023-04-01T17:24:10.924Z,18.46
2023-04-01T17:26:47.300Z,18.80
2023-04-01T17:29:27.992Z,19.06
2023-04-01T17:32:04.041Z,19.29
2023-04-01T17:34:57.354Z,19.42
2023-04-01T17:37:34.558Z,19.52
2023-04-01T17:40:01.522Z,19.63
2023-04-01T17:42:57.024Z,19.70
2023-04-01T17:45:43.903Z,19.76
2023-04-01T17:48:25.485Z,19.58
2023-04-01T17:51:11.208Z,18.83
2023-04-01T17:54:01.140Z,18.65
2023-04-01T17:56:56.802Z,18.35
2023-04-01T17:59:37.064Z,17.86
2023-04-01T18:02:28.185Z,17.80
2023-04-01T18:05:04.363Z,17.61
2023-04-01T18:07:41.865Z,17.63
2023-04-01T18:10:24.969Z,17.48
2023-04-01T18:13:10.909Z,17.35
2023-04-01T18:16:12.363Z,17.27
2023-04-01T18:18:49.693Z,17.19
2023-04-01T18:21:32.400Z,17.08
2023-04-01T18:24:14.348Z,17.04
2023-04-01T18:26:45.229Z,16.68
2023-04-01T18:29:14.842Z,16.31
2023-04-01T18:31:47.319Z,16.09
2023-04-01T18:34:35.419Z,16.09
2023-04-01T18:37:15.530Z,16.11
2023-04-01T18:39:53.449Z,15.85
2023-04-01T18:42:51.728Z,15.73
2023-04-01T18:45:32.052Z,15.80
2023-04-01T18:48:05.092Z,15.52
2023-04-01T18:51:03.716Z,15.70
2023-04-01T18:53:55.894Z,15.68
2023-04-01T18:56:52.135Z,15.53
2023-04-01T18:59:29.539Z,15.63
2023-04-01T19:02:33.045Z,15.40
2023-04-01T19:05:18.311Z,15.31
2023-04-01T19:07:49.478Z,15.15
2023-04-01T19:10:43.104Z,15.05
2023-04-01T19:13:41.691Z,14.92
2023-04-01T19:16:37.736Z,14.71
2023-04-01T19:19:22.058Z,14.54
2023-04-01T19:21:54.781Z,14.71
2023-04-01T19:24:48.130Z,14.66
2023-04-01T19:27:32.778Z,14.76
2023-04-01T19:30:33.715Z,14.58
2023-04-01T19:33:21.938Z,14.79
2023-04-01T19:36:11.384Z,14.96
2023-04-01T19:38:41.416Z,14.96
2023-04-01T19:41:55.860Z,14.93
2023-04-01T19:44:35.190Z,14.97
2023-04-01T19:47:16.013Z,14.83
2023-04-01T19:50:09.854Z,14.77
2023-04-01T19:52:42.385Z,14.73
2023-04-01T19:55:37.628Z,14.59
2023-04-01T19:58:22.200Z,14.47
2023-04-01T20:00:58.085Z,14.46
2023-04-01T20:03:45.673Z,14.48
2023-04-01T20:06:33.722Z,14.49
2023-04-01T20:09:38.140Z,14.52
2023-04-01T20:12:15.855Z,14.52
2023-04-01T20:14:50.265Z,14.39
2023-04-01T20:17:43.107Z,14.66
2023-04-01T20:20:13.388Z,14.76
2023-04-01T20:22:46.201Z,14.93
2023-04-01T20:25:50.671Z,14.90
2023-04-01T20:28:20.940Z,14.88
2023-04-01T20:31:27.458Z,14.86
2023-04-01T20:34:15.972Z,14.86
2023-04-01T20:37:08.128Z,14.95
2023-04-01T20:39:50.576Z,15.08
2023-04-01T20:42:45.882Z,15.13
2023-04-01T20:45:18.986Z,15.13
2023-04-01T20:48:13.240Z,15.17
2023-04-01T20:50:52.439Z,15.23
2023-04-01T20:53:57.990Z,15.07
2023-04-01T20:56:56.574Z,14.95
2023-04-01T20:59:26.943Z,14.84
2023-04-01T21:02:03.329Z,14.75
2023-04-01T21:05:12.094Z,14.75
2023-04-01T21:07:47.472Z,14.75
2023-04-01T21:10:26.658Z,14.58
2023-04-01T21:13:17.665Z,14.56
2023-04-01T21:16:11.272Z,14.57
2023-04-01T21:18:59.031Z,14.41
2023-04-01T21:21:51.379Z,14.41
2023-04-01T21:24:42.369Z,14.39
2023-04-01T21:27:21.774Z,14.23
2023-04-01T21:30:27.526Z,14.28
2023-04-01T21:32:54.352Z,14.33
2023-04-01T21:35:42.881Z,14.32
2023-04-01T21:38:24.300Z,14.26
2023-04-01T21:41:16.094Z,14.28
2023-04-01T21:44:11.157Z,14.34
2023-04-01T21:46:41.104Z,14.21
2023-04-01T21:49:26.346Z,14.29
2023-04-01T21:52:20.726Z,14.17
2023-04-01T21:55:09.278Z,14.16
2023-04-01T21:58:00.417Z,14.29
2023-04-01T22:00:37.746Z,14.28
2023-04-01T22:03:19.799Z,14.31
2023-04-01T22:06:12.619Z,14.36
2023-04-01T22:09:02.348Z,14.13
2023-04-01T22:11:39.591Z,14.13
2023-04-01T22:14:43.420Z,14.17
2023-04-01T22:17:26.228Z,14.23
2023-04-01T22:20:10.405Z,14.28
2023-04-01T22:22:37.311Z,14.36
2023-04-01T22:25:23.690Z,14.46
2023-04-01T22:28:16.330Z,14.55
2023-04-01T22:30:51.345Z,14.61
2023-04-01T22:33:37.235Z,14.65
2023-04-01T22:36:35.239Z,14.67
2023-04-01T22:39:18.458Z,14.70
2023-04-01T22:42:05.530Z,14.70
2023-04-01T22:45:11.898Z,14.73
2023-04-01T22:48:26.455Z,14.73
2023-04-01T22:51:14.491Z,14.78
2023-04-01T22:53:59.830Z,14.79
2023-04-01T22:56:34.655Z,14.82
2023-04-01T22:59:11.846Z,14.81
2023-04-01T23:01:48.485Z,14.83
2023-04-01T23:04:21.704Z,14.81
2023-04-01T23:06:54.803Z,14.81
2023-04-01T23:09:30.679Z,14.74
2023-04-01T23:12:05.829Z,14.62
2023-04-01T23:14:38.299Z,14.54
2023-04-01T23:17:39.179Z,14.39
2023-04-01T23:20:22.793Z,14.46
2023-04-01T23:23:12.264Z,14.40
2023-04-01T23:26:07.286Z,14.43
2023-04-01T23:28:41.893Z,14.47
2023-04-01T23:32:01.195Z,14.54
2023-04-01T23:34:37.735Z,14.57
2023-04-01T23:37:17.186Z,14.39
2023-04-01T23:39:46.995Z,14.33
2023-04-01T23:42:20.897Z,14.18
2023-04-01T23:44:50.742Z,14.25
2023-04-01T23:47:23.091Z,14.33
2023-04-01T23:49:56.158Z,14.34
2023-04-01T23:52:26.344Z,14.40
2023-04-01T23:54:59.315Z,14.39
2023-04-01T23:57:32.137Z,14.42
